Time;durP1;ratioP1;P1;durP2;ratioP2;P2;SDS_P1;SDS_P2;PMS_P1;PMS_P2;Temp;Humidity;BMP_temperature;BMP_pressure;BME280_temperature;BME280_humidity;BME280_pressure;Samples;Min_cycle;Max_cycle;Signal;HPM_P1;HPM_P2
2023/05/22 00:01:13;;;;;;;9.73;9.13;;;20.20;52.00;;;;;;20852;6799;130764;-76
2023/05/22 00:03:39;;;;;;;10.93;10.23;;;20.00;52.20;;;;;;20597;6813;306200;-77
2023/05/22 00:06:04;;;;;;;9.77;9.10;;;20.20;52.40;;;;;;20827;6815;117269;-78
2023/05/22 00:08:30;;;;;;;10.97;10.27;;;20.40;52.10;;;;;;20653;6798;302836;-78
2023/05/22 00:10:55;;;;;;;10.07;9.27;;;20.40;52.10;;;;;;20879;6798;117201;-77
2023/05/22 00:13:21;;;;;;;9.90;9.10;;;20.40;51.90;;;;;;20850;6799;117703;-77
2023/05/22 00:15:46;;;;;;;9.57;8.97;;;20.10;52.00;;;;;;20874;6799;117741;-78
2023/05/22 00:18:15;;;;;;;11.17;10.40;;;20.00;52.30;;;;;;20648;6799;306235;-77
2023/05/22 00:20:41;;;;;;;10.80;10.00;;;20.20;52.50;;;;;;20656;6799;294937;-76
2023/05/22 00:23:10;;;;;;;10.40;9.70;;;20.60;51.90;;;;;;20868;6799;117352;-76
2023/05/22 00:25:36;;;;;;;10.90;10.30;;;20.50;51.60;;;;;;20633;6799;276653;-77
2023/05/22 00:28:02;;;;;;;11.20;10.40;;;20.60;51.50;;;;;;20658;6799;282246;-76
2023/05/22 00:30:27;;;;;;;11.65;10.88;;;20.90;51.10;;;;;;20653;6799;279940;-77
2023/05/22 00:32:53;;;;;;;10.17;9.57;;;21.00;50.70;;;;;;20866;6799;117400;-77
2023/05/22 00:35:19;;;;;;;11.40;10.60;;;20.80;50.70;;;;;;20638;6799;305501;-77
2023/05/22 00:37:45;;;;;;;11.27;10.60;;;20.90;50.90;;;;;;20655;6799;304522;-77
2023/05/22 00:40:10;;;;;;;10.93;10.23;;;21.00;50.60;;;;;;20866;6799;117512;-77
2023/05/22 00:42:36;;;;;;;9.60;8.90;;;20.70;50.60;;;;;;20855;6799;121212;-77
2023/05/22 00:45:01;;;;;;;11.00;10.20;;;20.40;51.10;;;;;;20657;6799;310081;-78
2023/05/22 00:47:27;;;;;;;11.50;10.70;;;20.40;51.40;;;;;;20631;6799;277177;-78
2023/05/22 00:49:52;;;;;;;11.65;10.80;;;20.70;51.10;;;;;;20658;6799;306817;-77
2023/05/22 00:52:20;;;;;;;11.60;10.80;;;20.60;50.80;;;;;;20863;6799;117308;-77
2023/05/22 00:54:47;;;;;;;11.43;10.63;;;20.60;50.70;;;;;;20655;6799;305996;-77
2023/05/22 00:57:13;;;;;;;11.73;11.03;;;20.60;51.00;;;;;;20628;6799;305873;-77
2023/05/22 00:59:38;;;;;;;11.40;10.27;;;20.80;50.70;;;;;;20860;6799;117961;-78
2023/05/22 01:02:04;;;;;;;12.13;10.97;;;20.60;50.80;;;;;;20650;6799;305113;-78
2023/05/22 01:04:31;;;;;;;11.93;11.13;;;20.60;50.90;;;;;;20657;6799;304443;-76
2023/05/22 01:06:58;;;;;;;11.53;10.53;;;20.50;50.50;;;;;;20872;6799;117159;-77
2023/05/22 01:09:23;;;;;;;12.10;11.30;;;20.50;50.50;;;;;;20633;6799;276620;-77
2023/05/22 01:12:05;;;;;;;10.93;10.23;;;20.50;50.80;;;;;;20870;6799;117425;-78
2023/05/22 01:14:47;;;;;;;12.37;11.27;;;19.90;51.30;;;;;;20853;6797;118275;-77
2023/05/22 01:17:36;;;;;;;10.70;9.90;;;19.80;51.20;;;;;;20829;6798;117945;-78
2023/05/22 01:20:06;;;;;;;11.03;10.23;;;19.50;51.60;;;;;;20842;6798;120958;-77
2023/05/22 01:22:30;;;;;;;12.80;12.00;;;19.20;52.00;;;;;;20625;6798;312805;-77
2023/05/22 01:25:29;;;;;;;10.70;9.80;;;19.40;52.60;;;;;;20838;6799;117433;-77
2023/05/22 01:28:22;;;;;;;12.20;11.33;;;19.50;52.70;;;;;;20650;6799;281533;-78
2023/05/22 01:31:10;;;;;;;10.80;10.10;;;19.50;52.70;;;;;;20866;6799;117503;-77
2023/05/22 01:33:47;;;;;;;11.77;10.80;;;19.40;52.40;;;;;;20847;6799;117893;-77
2023/05/22 01:36:12;;;;;;;12.45;11.55;;;19.20;52.70;;;;;;20657;6799;310001;-77
2023/05/22 01:38:38;;;;;;;12.60;11.80;;;19.40;53.00;;;;;;20852;6799;117464;-77
2023/05/22 01:41:05;;;;;;;12.60;11.83;;;19.40;52.60;;;;;;20642;6799;306415;-77
2023/05/22 01:43:31;;;;;;;12.30;11.50;;;19.80;52.10;;;;;;20625;6799;276974;-77
2023/05/22 01:45:58;;;;;;;12.33;11.53;;;19.80;52.10;;;;;;20649;6799;306434;-77
2023/05/22 01:48:24;;;;;;;11.47;10.67;;;20.10;51.60;;;;;;20861;6799;118016;-77
2023/05/22 01:50:49;;;;;;;11.67;10.87;;;20.00;51.60;;;;;;20868;6799;117245;-77
2023/05/22 01:53:35;;;;;;;11.37;10.63;;;19.70;52.00;;;;;;20844;6799;117886;-77
2023/05/22 01:56:00;;;;;;;10.70;9.90;;;19.40;52.30;;;;;;20865;6799;117232;-77
2023/05/22 01:58:30;;;;;;;12.13;11.20;;;19.10;52.60;;;;;;20842;6799;117144;-77
2023/05/22 02:00:56;;;;;;;12.20;11.20;;;19.00;52.90;;;;;;20618;6799;280045;-76
2023/05/22 02:03:22;;;;;;;11.48;10.68;;;19.30;52.90;;;;;;20842;6799;121172;-77
2023/05/22 02:05:47;;;;;;;12.10;11.10;;;19.20;52.80;;;;;;20833;6799;117358;-77
2023/05/22 02:08:13;;;;;;;11.73;10.97;;;19.10;53.00;;;;;;20601;6799;306949;-76
2023/05/22 02:10:38;;;;;;;11.68;10.98;;;19.40;53.10;;;;;;20639;6799;276178;-77
2023/05/22 02:13:04;;;;;;;11.95;11.07;;;19.70;52.30;;;;;;20637;6799;336647;-77
2023/05/22 02:15:30;;;;;;;10.70;9.80;;;20.10;51.70;;;;;;20785;6799;123589;-76
2023/05/22 02:17:57;;;;;;;10.07;9.23;;;19.60;51.80;;;;;;20833;6799;117272;-77
2023/05/22 02:20:23;;;;;;;9.90;9.10;;;19.60;51.80;;;;;;20845;6799;117432;-78
2023/05/22 02:22:48;;;;;;;10.23;9.40;;;19.40;52.20;;;;;;20840;6799;116853;-77
2023/05/22 02:25:15;;;;;;;10.82;10.18;;;19.10;52.50;;;;;;20608;6797;342099;-77
2023/05/22 02:27:40;;;;;;;10.60;9.67;;;19.40;52.30;;;;;;20841;6798;117929;-77
2023/05/22 02:30:06;;;;;;;10.25;9.65;;;19.30;52.20;;;;;;20642;6798;335442;-77
2023/05/22 02:32:34;;;;;;;11.65;10.85;;;19.50;52.00;;;;;;20657;6798;309825;-77
2023/05/22 02:35:00;;;;;;;10.67;9.77;;;19.90;51.60;;;;;;20862;6798;117237;-77
2023/05/22 02:37:27;;;;;;;9.93;9.33;;;19.80;51.50;;;;;;20840;6798;117133;-77
2023/05/22 02:39:53;;;;;;;10.97;10.27;;;19.60;52.60;;;;;;20649;6799;294822;-77
2023/05/22 02:42:18;;;;;;;11.33;10.47;;;19.60;51.90;;;;;;20875;6799;118659;-77
2023/05/22 02:44:44;;;;;;;10.97;10.37;;;19.60;51.90;;;;;;20653;6799;343147;-77
2023/05/22 02:47:09;;;;;;;11.30;10.50;;;19.70;51.90;;;;;;20659;6799;287801;-77
2023/05/22 02:49:35;;;;;;;10.80;10.00;;;20.00;51.60;;;;;;20856;6799;117312;-79
2023/05/22 02:52:01;;;;;;;12.10;11.20;;;19.90;51.50;;;;;;20649;6799;306727;-77
2023/05/22 02:54:27;;;;;;;11.50;10.80;;;19.80;52.10;;;;;;20865;6799;118240;-76
2023/05/22 02:56:52;;;;;;;11.00;10.20;;;19.80;51.40;;;;;;20863;6799;117755;-77
2023/05/22 02:59:18;;;;;;;11.32;10.52;;;19.50;51.70;;;;;;20640;6799;277835;-77
2023/05/22 03:01:44;;;;;;;11.07;10.37;;;19.60;51.80;;;;;;20860;6799;117396;-77
2023/05/22 03:04:11;;;;;;;11.02;10.32;;;19.60;51.80;;;;;;20656;6799;276225;-77
2023/05/22 03:06:35;;;;;;;11.23;10.32;;;19.70;51.70;;;;;;20642;6799;310856;-77
2023/05/22 03:09:02;;;;;;;11.75;11.00;;;20.00;51.30;;;;;;20646;6799;306883;-78
2023/05/22 03:11:26;;;;;;;10.67;10.07;;;20.20;50.80;;;;;;20844;6799;117787;-78
2023/05/22 03:13:51;;;;;;;11.53;10.60;;;20.00;50.80;;;;;;20860;6799;117870;-79
2023/05/22 03:16:17;;;;;;;10.23;9.43;;;19.70;51.30;;;;;;20869;6799;123515;-76
2023/05/22 03:18:42;;;;;;;10.53;9.80;;;19.30;51.60;;;;;;20853;6799;117122;-78
2023/05/22 03:21:08;;;;;;;12.03;11.13;;;19.10;52.00;;;;;;20644;6799;276991;-79
2023/05/22 03:23:34;;;;;;;12.43;11.73;;;19.60;51.70;;;;;;20630;6799;305945;-81
2023/05/22 03:26:00;;;;;;;12.35;11.55;;;19.60;51.70;;;;;;20658;6799;296630;-74
2023/05/22 03:28:26;;;;;;;11.73;10.93;;;20.00;50.80;;;;;;20654;6799;277449;-73
2023/05/22 03:30:52;;;;;;;11.73;10.93;;;20.00;50.80;;;;;;20868;6799;117577;-73
2023/05/22 03:33:17;;;;;;;12.00;11.20;;;19.80;50.80;;;;;;20644;6799;277076;-74
2023/05/22 03:35:43;;;;;;;12.53;11.53;;;19.80;51.00;;;;;;20658;6799;306070;-73
2023/05/22 03:38:08;;;;;;;13.60;12.70;;;20.00;50.90;;;;;;20647;6797;310196;-73
2023/05/22 03:40:34;;;;;;;14.07;13.07;;;20.10;50.50;;;;;;20653;6798;294639;-73
2023/05/22 03:43:00;;;;;;;12.10;11.30;;;20.10;50.60;;;;;;20872;6798;117256;-73
2023/05/22 03:45:25;;;;;;;14.10;12.85;;;19.70;50.90;;;;;;20641;6798;276994;-73
2023/05/22 03:47:51;;;;;;;12.53;11.73;;;19.70;51.60;;;;;;20650;6799;340004;-74
2023/05/22 03:50:19;;;;;;;11.80;10.90;;;19.70;51.60;;;;;;20870;6799;117126;-73
2023/05/22 03:52:44;;;;;;;11.27;10.37;;;19.50;51.80;;;;;;20861;6799;117641;-73
2023/05/22 03:55:10;;;;;;;12.13;10.93;;;19.10;52.20;;;;;;20867;6799;117266;-74
2023/05/22 03:57:35;;;;;;;12.77;11.82;;;18.80;52.60;;;;;;20628;6799;335799;-74
2023/05/22 04:00:08;;;;;;;11.50;10.80;;;19.00;52.90;;;;;;20868;6799;117311;-74
2023/05/22 04:02:28;;;;;;;11.17;10.30;;;18.90;52.80;;;;;;20856;6799;121525;-74
2023/05/22 04:04:52;;;;;;;10.87;9.97;;;18.70;53.10;;;;;;20872;6799;117221;-74
2023/05/22 04:07:19;;;;;;;11.88;11.02;;;18.60;54.10;;;;;;20640;6799;277323;-73
2023/05/22 04:09:43;;;;;;;12.30;11.40;;;18.80;53.30;;;;;;20649;6799;309728;-73
2023/05/22 04:12:10;;;;;;;11.87;11.07;;;19.20;52.60;;;;;;20649;6799;305978;-76
2023/05/22 04:14:36;;;;;;;11.17;10.17;;;19.30;51.90;;;;;;20855;6799;117332;-73
2023/05/22 04:17:02;;;;;;;11.33;10.43;;;19.30;51.90;;;;;;20872;6799;118176;-72
2023/05/22 04:19:28;;;;;;;10.80;10.00;;;19.10;52.40;;;;;;20852;6799;117302;-73
2023/05/22 04:21:53;;;;;;;12.10;11.30;;;18.80;52.60;;;;;;20649;6799;305932;-72
2023/05/22 04:24:21;;;;;;;12.90;11.93;;;19.00;52.70;;;;;;20662;6799;306448;-73
2023/05/22 04:26:46;;;;;;;11.33;10.50;;;19.30;52.20;;;;;;20848;6799;117718;-74
2023/05/22 04:29:13;;;;;;;10.43;9.73;;;19.30;52.30;;;;;;20874;6799;117226;-75
2023/05/22 04:31:38;;;;;;;11.05;10.27;;;18.90;53.00;;;;;;20718;6799;117170;-77
2023/05/22 04:34:04;;;;;;;11.23;10.20;;;18.80;52.90;;;;;;20823;6814;117893;-74
2023/05/22 04:36:29;;;;;;;11.73;10.93;;;18.80;53.20;;;;;;20601;6814;340057;-78
2023/05/22 04:38:54;;;;;;;12.32;11.52;;;19.10;53.10;;;;;;20597;6815;306984;-77
2023/05/22 04:41:25;;;;;;;10.63;9.93;;;19.60;52.40;;;;;;20807;6813;117470;-80
2023/05/22 04:43:48;;;;;;;11.70;10.90;;;19.60;52.10;;;;;;20814;6813;117412;-76
2023/05/22 04:46:14;;;;;;;12.27;11.50;;;19.50;52.30;;;;;;20609;6813;305992;-74
2023/05/22 04:48:40;;;;;;;11.80;10.73;;;19.70;52.10;;;;;;20816;6811;120371;-77
2023/05/22 04:51:05;;;;;;;11.47;10.67;;;19.80;52.00;;;;;;20797;6812;118471;-75
2023/05/22 04:53:32;;;;;;;12.32;11.52;;;19.70;52.80;;;;;;20596;6812;333384;-75
2023/05/22 04:55:56;;;;;;;11.55;10.75;;;20.00;51.80;;;;;;20829;6812;117996;-77
2023/05/22 04:58:28;;;;;;;10.33;9.73;;;20.00;51.60;;;;;;20826;6812;117537;-79
2023/05/22 05:00:56;;;;;;;11.40;10.60;;;20.30;51.50;;;;;;20610;6813;298135;-78
2023/05/22 05:03:21;;;;;;;9.57;8.97;;;20.20;51.30;;;;;;20793;6813;117760;-77
2023/05/22 05:05:46;;;;;;;12.05;11.20;;;20.30;51.30;;;;;;20585;6813;334340;-76
2023/05/22 05:08:16;;;;;;;9.80;9.17;;;20.50;50.60;;;;;;20814;6813;117343;-80
2023/05/22 05:10:42;;;;;;;10.27;9.57;;;20.60;50.70;;;;;;20821;6813;116854;-77
2023/05/22 05:13:08;;;;;;;9.82;9.23;;;20.50;51.00;;;;;;20805;6813;123315;-82
2023/05/22 05:15:33;;;;;;;11.43;10.67;;;20.40;51.20;;;;;;20592;6813;305751;-75
2023/05/22 05:17:59;;;;;;;9.90;9.30;;;20.60;50.80;;;;;;20784;6813;117848;-77
2023/05/22 05:20:26;;;;;;;11.00;10.30;;;20.70;50.70;;;;;;20620;6813;277115;-74
2023/05/22 05:22:50;;;;;;;10.30;9.60;;;21.00;50.40;;;;;;20820;6813;117690;-75
2023/05/22 05:25:15;;;;;;;11.30;10.40;;;21.00;50.30;;;;;;20555;6813;305657;-75
2023/05/22 05:27:41;;;;;;;12.37;11.47;;;21.20;50.00;;;;;;20605;6813;335531;-75
2023/05/22 05:30:07;;;;;;;10.63;9.98;;;21.60;49.70;;;;;;20606;6813;298894;-73
2023/05/22 05:32:32;;;;;;;9.90;9.30;;;21.90;49.00;;;;;;20822;6813;118027;-79
2023/05/22 05:35:01;;;;;;;9.95;9.18;;;21.80;49.10;;;;;;20821;6813;117051;-75
2023/05/22 05:37:26;;;;;;;11.17;10.37;;;21.60;49.40;;;;;;20807;6813;117232;-75
2023/05/22 05:39:52;;;;;;;11.27;10.48;;;21.50;49.90;;;;;;20606;6813;338182;-76
2023/05/22 05:42:17;;;;;;;10.55;9.95;;;21.70;49.80;;;;;;20825;6813;117481;-76
2023/05/22 05:44:43;;;;;;;11.60;10.80;;;21.80;49.70;;;;;;20610;6813;278571;-76
2023/05/22 05:47:10;;;;;;;10.27;9.57;;;22.20;49.20;;;;;;20813;6813;121110;-76
2023/05/22 05:49:35;;;;;;;10.60;9.90;;;22.10;49.10;;;;;;20801;6813;117299;-74
2023/05/22 05:52:00;;;;;;;11.70;10.88;;;22.10;49.40;;;;;;20820;6813;117255;-74
2023/05/22 05:54:28;;;;;;;10.82;10.00;;;21.90;49.70;;;;;;20824;6813;120300;-74
2023/05/22 05:56:54;;;;;;;11.23;10.30;;;21.90;49.70;;;;;;20821;6813;117685;-73
2023/05/22 05:59:19;;;;;;;11.90;11.20;;;21.90;49.80;;;;;;20586;6813;335583;-73
2023/05/22 06:01:46;;;;;;;12.10;11.32;;;22.30;48.90;;;;;;20611;6811;296402;-73
2023/05/22 06:04:10;;;;;;;10.30;9.50;;;22.70;48.40;;;;;;20816;6812;119858;-73
2023/05/22 06:06:38;;;;;;;11.10;10.32;;;22.80;48.40;;;;;;20821;6812;117729;-73
2023/05/22 06:09:04;;;;;;;11.60;10.80;;;23.10;47.90;;;;;;20605;6812;277192;-73
2023/05/22 06:11:30;;;;;;;11.53;10.53;;;23.30;47.90;;;;;;20800;6813;117562;-72
2023/05/22 06:13:56;;;;;;;11.27;10.47;;;23.30;47.90;;;;;;20813;6813;117504;-73
2023/05/22 06:16:21;;;;;;;12.50;11.60;;;23.30;48.10;;;;;;20588;6813;306242;-73
2023/05/22 06:18:48;;;;;;;11.53;10.63;;;23.50;47.20;;;;;;20828;6813;117962;-73
2023/05/22 06:21:12;;;;;;;12.20;11.15;;;23.70;47.80;;;;;;20588;6813;282079;-73
2023/05/22 06:23:38;;;;;;;11.67;10.87;;;25.00;46.90;;;;;;20609;6813;306137;-73
2023/05/22 06:26:04;;;;;;;10.70;10.00;;;25.00;47.30;;;;;;20820;6813;117503;-73
2023/05/22 06:28:30;;;;;;;11.65;10.80;;;25.30;46.80;;;;;;20609;6813;308558;-74
2023/05/22 06:30:56;;;;;;;11.77;10.88;;;25.80;44.20;;;;;;20617;6813;277247;-73
2023/05/22 06:33:21;;;;;;;10.55;9.85;;;26.40;42.80;;;;;;20577;6813;277587;-73
2023/05/22 06:35:47;;;;;;;10.20;9.60;;;26.90;42.10;;;;;;20813;6813;117780;-73
2023/05/22 06:38:13;;;;;;;11.67;10.80;;;26.90;42.10;;;;;;20818;6813;117181;-73
2023/05/22 06:40:38;;;;;;;11.77;11.10;;;26.60;42.50;;;;;;20607;6813;335561;-73
2023/05/22 06:43:04;;;;;;;10.45;9.85;;;26.20;42.30;;;;;;20826;6813;117892;-73
2023/05/22 06:45:30;;;;;;;10.53;9.83;;;26.20;42.30;;;;;;20795;6813;120968;-74
2023/05/22 06:47:56;;;;;;;11.32;10.30;;;25.90;42.90;;;;;;20838;6813;118280;-74
2023/05/22 06:50:21;;;;;;;11.45;10.77;;;25.60;43.40;;;;;;20616;6813;276084;-73
2023/05/22 06:52:47;;;;;;;11.33;10.40;;;25.60;43.80;;;;;;20835;6813;117476;-74
2023/05/22 06:55:12;;;;;;;11.93;11.02;;;25.50;43.90;;;;;;20595;6813;310830;-73
2023/05/22 06:57:38;;;;;;;11.10;10.10;;;25.60;43.80;;;;;;20844;6813;123390;-74
2023/05/22 07:00:08;;;;;;;11.07;10.37;;;25.50;44.10;;;;;;20823;6813;117606;-74
2023/05/22 07:02:34;;;;;;;12.07;11.27;;;25.30;45.30;;;;;;20600;6813;307239;-74
2023/05/22 07:04:59;;;;;;;10.77;10.07;;;25.50;43.70;;;;;;20827;6813;117843;-75
2023/05/22 07:07:25;;;;;;;11.00;10.30;;;25.50;43.70;;;;;;20800;6813;117875;-75
2023/05/22 07:09:51;;;;;;;11.40;10.70;;;25.40;44.20;;;;;;20606;6813;306522;-74
2023/05/22 07:12:16;;;;;;;11.30;10.70;;;25.70;44.10;;;;;;20612;6811;292784;-73
2023/05/22 07:14:42;;;;;;;10.87;10.17;;;26.30;42.90;;;;;;20820;6812;117747;-73
2023/05/22 07:17:09;;;;;;;10.18;9.57;;;26.30;43.40;;;;;;20827;6812;117251;-73
2023/05/22 07:19:35;;;;;;;11.18;10.38;;;26.30;43.40;;;;;;20590;6812;276532;-73
2023/05/22 07:22:02;;;;;;;10.68;10.07;;;26.70;42.50;;;;;;20827;6812;117349;-74
2023/05/22 07:24:30;;;;;;;10.03;9.43;;;26.60;42.50;;;;;;20813;6813;120329;-76
2023/05/22 07:26:55;;;;;;;10.13;9.43;;;26.50;42.40;;;;;;20823;6813;119704;-74
2023/05/22 07:29:21;;;;;;;11.63;10.73;;;26.40;42.40;;;;;;20591;6813;306463;-74
2023/05/22 07:31:47;;;;;;;11.30;10.50;;;26.50;42.20;;;;;;20605;6813;306438;-73
2023/05/22 07:34:12;;;;;;;11.38;10.57;;;26.70;41.90;;;;;;20606;6813;306140;-74
2023/05/22 07:36:39;;;;;;;10.80;10.20;;;26.80;41.40;;;;;;20600;6813;306266;-73
2023/05/22 07:39:04;;;;;;;11.63;10.73;;;26.80;41.40;;;;;;20605;6813;306148;-73
2023/05/22 07:41:32;;;;;;;10.90;10.20;;;26.50;41.70;;;;;;20804;6813;119580;-75
2023/05/22 07:43:57;;;;;;;11.60;10.70;;;26.50;41.80;;;;;;20608;6813;287502;-74
2023/05/22 07:46:23;;;;;;;12.15;11.25;;;26.30;42.10;;;;;;20601;6813;306489;-74
2023/05/22 07:48:48;;;;;;;11.03;10.30;;;26.40;42.50;;;;;;20598;6813;335056;-76
2023/05/22 07:51:14;;;;;;;11.38;10.57;;;26.40;42.80;;;;;;20593;6813;276687;-72
2023/05/22 07:53:40;;;;;;;11.15;10.43;;;26.10;43.30;;;;;;20820;6813;120211;-72
2023/05/22 07:56:06;;;;;;;10.53;9.73;;;26.10;43.30;;;;;;20820;6813;117353;-73
2023/05/22 07:58:33;;;;;;;11.33;10.63;;;25.80;43.90;;;;;;20611;6813;306217;-72
2023/05/22 08:00:57;;;;;;;10.97;10.10;;;25.70;44.50;;;;;;20821;6813;117427;-73
2023/05/22 08:03:23;;;;;;;12.20;11.20;;;25.60;44.90;;;;;;20596;6813;314569;-75
2023/05/22 08:05:49;;;;;;;11.73;11.03;;;25.50;44.80;;;;;;20821;6813;117455;-73
2023/05/22 08:08:16;;;;;;;11.60;10.90;;;25.50;44.60;;;;;;20827;6813;123025;-73
2023/05/22 08:10:42;;;;;;;12.77;11.97;;;25.40;44.40;;;;;;20606;6813;291652;-74
2023/05/22 08:13:07;;;;;;;12.03;11.13;;;25.50;43.80;;;;;;20819;6813;117626;-75
2023/05/22 08:15:33;;;;;;;12.80;11.90;;;25.50;43.70;;;;;;20590;6813;277101;-74
2023/05/22 08:17:58;;;;;;;12.75;11.85;;;25.60;43.80;;;;;;20603;6813;306622;-73
2023/05/22 08:20:24;;;;;;;12.00;10.93;;;25.80;43.90;;;;;;20826;6813;119849;-73
2023/05/22 08:22:49;;;;;;;11.80;11.00;;;25.70;43.90;;;;;;20820;6811;117683;-73
2023/05/22 08:25:15;;;;;;;13.62;12.68;;;25.50;44.40;;;;;;20588;6812;310251;-73
2023/05/22 08:27:41;;;;;;;13.03;11.80;;;25.60;44.40;;;;;;20828;6812;117883;-74
2023/05/22 08:30:06;;;;;;;12.45;11.55;;;25.60;44.40;;;;;;20819;6812;118261;-73
2023/05/22 08:32:32;;;;;;;13.23;12.30;;;25.60;44.60;;;;;;20614;6812;281825;-74
2023/05/22 08:34:58;;;;;;;12.40;11.60;;;26.30;44.10;;;;;;20607;6813;307064;-75
2023/05/22 08:37:24;;;;;;;12.17;11.37;;;26.30;44.10;;;;;;20798;6813;118655;-75
2023/05/22 08:39:49;;;;;;;13.15;12.25;;;26.60;44.00;;;;;;20604;6813;308343;-74
2023/05/22 08:42:15;;;;;;;12.27;11.47;;;27.00;43.00;;;;;;20825;6813;117979;-75
2023/05/22 08:44:40;;;;;;;12.37;11.68;;;27.20;42.90;;;;;;20609;6813;306520;-77
2023/05/22 08:47:09;;;;;;;12.80;12.00;;;27.50;41.90;;;;;;20603;6813;289177;-74
2023/05/22 08:49:32;;;;;;;12.30;11.50;;;28.00;41.00;;;;;;20579;6813;276698;-74
2023/05/22 08:52:11;;;;;;;12.67;11.80;;;28.40;40.70;;;;;;20611;6813;305673;-74
2023/05/22 08:54:36;;;;;;;12.23;11.37;;;28.80;39.90;;;;;;20481;6813;120473;-73
2023/05/22 08:57:02;;;;;;;12.23;11.25;;;28.80;39.90;;;;;;20596;6813;276239;-73
2023/05/22 08:59:28;;;;;;;12.53;11.70;;;28.90;40.20;;;;;;20584;6813;310225;-73
2023/05/22 09:01:54;;;;;;;12.57;11.60;;;29.10;39.70;;;;;;20824;6813;117672;-74
2023/05/22 09:04:22;;;;;;;12.07;11.17;;;29.10;39.80;;;;;;20606;6813;281290;-73
2023/05/22 09:06:45;;;;;;;11.75;10.82;;;29.20;39.30;;;;;;20812;6813;117832;-73
2023/05/22 09:09:11;;;;;;;11.20;10.50;;;29.30;39.80;;;;;;20817;6813;117746;-73
2023/05/22 09:11:38;;;;;;;13.27;12.18;;;29.20;40.30;;;;;;20583;6813;310210;-73
2023/05/22 09:14:08;;;;;;;11.93;11.13;;;29.40;39.20;;;;;;20822;6813;117268;-73
2023/05/22 09:16:43;;;;;;;11.90;11.10;;;29.40;39.20;;;;;;20788;6813;120788;-73
2023/05/22 09:19:09;;;;;;;12.23;11.23;;;29.10;39.60;;;;;;20787;6813;117376;-73
2023/05/22 09:21:36;;;;;;;11.93;11.10;;;29.10;39.60;;;;;;20803;6813;117677;-74
2023/05/22 09:24:01;;;;;;;13.77;12.67;;;29.10;40.00;;;;;;20827;6813;117806;-74
2023/05/22 09:26:26;;;;;;;12.55;11.75;;;29.10;39.90;;;;;;20616;6813;276833;-74
2023/05/22 09:28:52;;;;;;;12.55;11.52;;;29.80;40.60;;;;;;20603;6813;306341;-72
2023/05/22 09:31:19;;;;;;;13.68;12.63;;;30.20;39.20;;;;;;20593;6813;340238;-72
2023/05/22 09:33:44;;;;;;;12.20;11.40;;;30.20;38.50;;;;;;20607;6813;305762;-72
2023/05/22 09:36:10;;;;;;;13.73;12.82;;;30.50;38.00;;;;;;20613;6811;277158;-72
2023/05/22 09:38:36;;;;;;;12.87;12.07;;;30.80;37.70;;;;;;20604;6812;306979;-72
2023/05/22 09:41:01;;;;;;;12.80;12.00;;;31.00;37.90;;;;;;20614;6812;281311;-72
2023/05/22 09:43:27;;;;;;;12.63;11.73;;;31.10;37.70;;;;;;20591;6812;276725;-72
2023/05/22 09:46:03;;;;;;;11.93;11.23;;;31.20;38.50;;;;;;20829;6813;117400;-72
2023/05/22 09:48:27;;;;;;;10.73;10.00;;;31.10;38.30;;;;;;20826;6813;117142;-72
2023/05/22 09:50:53;;;;;;;12.50;11.70;;;30.90;38.60;;;;;;20612;6813;307066;-74
2023/05/22 09:53:19;;;;;;;10.73;10.10;;;30.90;37.50;;;;;;20803;6813;119469;-74
2023/05/22 09:55:48;;;;;;;11.07;10.38;;;30.80;38.40;;;;;;20818;6813;117496;-74
2023/05/22 09:58:14;;;;;;;12.20;11.35;;;30.80;38.40;;;;;;20607;6813;306971;-74
2023/05/22 10:00:39;;;;;;;12.07;11.18;;;30.90;37.80;;;;;;20810;6813;117328;-74
2023/05/22 10:03:10;;;;;;;11.95;11.15;;;31.00;37.70;;;;;;20819;6813;117341;-74
2023/05/22 10:05:34;;;;;;;11.93;11.13;;;30.80;37.60;;;;;;20789;6813;119741;-74
2023/05/22 10:08:09;;;;;;;14.07;12.98;;;30.70;37.20;;;;;;20592;6813;312617;-73
2023/05/22 10:10:35;;;;;;;12.70;11.80;;;30.70;37.10;;;;;;20596;6813;308425;-72
2023/05/22 10:13:05;;;;;;;13.65;12.82;;;31.10;36.60;;;;;;20604;6813;311012;-72
2023/05/22 10:15:31;;;;;;;12.47;11.67;;;31.00;37.10;;;;;;20797;6813;119704;-73
2023/05/22 10:17:56;;;;;;;13.80;12.80;;;31.00;37.10;;;;;;20606;6813;311124;-73
2023/05/22 10:20:23;;;;;;;12.60;11.77;;;31.00;37.10;;;;;;20802;6813;117323;-72
2023/05/22 10:22:48;;;;;;;12.95;12.10;;;31.00;37.10;;;;;;20612;6813;307807;-73
2023/05/22 10:25:14;;;;;;;12.80;11.80;;;31.10;37.70;;;;;;20814;6813;123168;-72
2023/05/22 10:27:39;;;;;;;12.70;11.70;;;31.10;37.20;;;;;;20829;6813;117973;-73
2023/05/22 10:30:29;;;;;;;12.75;11.75;;;31.00;37.00;;;;;;20606;6813;276804;-72
2023/05/22 10:32:54;;;;;;;12.27;11.57;;;31.20;36.40;;;;;;20614;6813;306969;-72
2023/05/22 10:35:20;;;;;;;12.40;11.50;;;31.60;35.10;;;;;;20799;6813;122228;-72
2023/05/22 10:37:46;;;;;;;11.77;11.07;;;31.50;35.00;;;;;;20780;6813;117494;-72
2023/05/22 10:40:12;;;;;;;11.37;10.53;;;31.40;35.40;;;;;;20812;6813;117307;-72
2023/05/22 10:42:37;;;;;;;11.35;10.65;;;31.20;36.10;;;;;;20596;6813;306555;-73
2023/05/22 10:45:03;;;;;;;12.10;11.20;;;31.40;37.00;;;;;;20827;6813;117345;-73
2023/05/22 10:47:28;;;;;;;11.77;10.97;;;31.50;36.50;;;;;;20762;6811;119250;-72
2023/05/22 10:50:08;;;;;;;11.77;11.07;;;31.40;36.30;;;;;;20595;6812;306163;-74
2023/05/22 10:52:34;;;;;;;11.93;11.13;;;31.60;36.20;;;;;;20817;6812;117260;-74
2023/05/22 10:55:03;;;;;;;11.20;10.50;;;31.60;35.70;;;;;;20602;6812;305741;-75
2023/05/22 10:57:33;;;;;;;11.57;10.67;;;31.80;35.40;;;;;;20806;6813;143304;-73
2023/05/22 11:00:11;;;;;;;10.50;9.87;;;31.70;35.30;;;;;;20810;6813;117521;-75
2023/05/22 11:02:36;;;;;;;12.57;10.97;;;31.60;35.60;;;;;;20816;6813;119206;-72
2023/05/22 11:05:21;;;;;;;11.30;10.20;;;31.60;35.50;;;;;;20798;6813;117472;-75
2023/05/22 11:07:47;;;;;;;12.00;11.25;;;31.40;35.40;;;;;;20608;6813;335571;-75
2023/05/22 11:10:12;;;;;;;10.57;9.87;;;31.50;34.30;;;;;;20819;6813;117297;-72
2023/05/22 11:12:40;;;;;;;10.47;9.80;;;31.50;34.50;;;;;;20822;6813;121163;-74
2023/05/22 11:15:07;;;;;;;11.50;10.70;;;31.50;34.80;;;;;;20620;6813;281512;-74
2023/05/22 11:17:40;;;;;;;11.33;10.63;;;31.50;34.30;;;;;;20577;6813;306256;-73
2023/05/22 11:20:06;;;;;;;11.60;10.75;;;32.00;34.70;;;;;;20602;6813;334547;-75
2023/05/22 11:22:33;;;;;;;10.67;9.93;;;32.00;34.60;;;;;;20617;6813;124153;-75
2023/05/22 11:24:58;;;;;;;10.10;9.50;;;32.00;34.10;;;;;;20732;6813;117106;-73
2023/05/22 11:27:24;;;;;;;10.97;10.13;;;31.80;34.20;;;;;;20807;6813;117459;-76
2023/05/22 11:29:50;;;;;;;11.68;10.98;;;31.60;34.20;;;;;;20609;6813;277276;-75
2023/05/22 11:32:19;;;;;;;10.87;10.27;;;31.60;34.20;;;;;;20609;6813;294982;-74
2023/05/22 11:34:43;;;;;;;10.70;10.00;;;31.80;34.00;;;;;;20814;6813;118545;-76
2023/05/22 11:37:08;;;;;;;10.38;9.57;;;31.80;34.20;;;;;;20614;6813;306250;-74
2023/05/22 11:39:35;;;;;;;9.27;8.63;;;32.00;32.50;;;;;;20594;6813;305702;-74
2023/05/22 11:42:03;;;;;;;9.17;8.47;;;32.00;32.50;;;;;;20819;6813;117431;-74
2023/05/22 11:44:28;;;;;;;8.65;8.25;;;31.70;31.90;;;;;;20820;6813;117484;-74
2023/05/22 11:46:53;;;;;;;8.90;8.40;;;31.60;31.80;;;;;;20818;6813;120074;-74
2023/05/22 11:49:22;;;;;;;9.03;8.43;;;31.30;32.80;;;;;;20807;6813;123411;-75
2023/05/22 11:51:45;;;;;;;9.53;9.00;;;31.20;32.70;;;;;;20805;6813;121162;-76
2023/05/22 11:54:11;;;;;;;10.97;10.17;;;31.30;33.00;;;;;;20599;6813;276917;-75
2023/05/22 11:56:37;;;;;;;11.35;10.55;;;31.30;33.50;;;;;;20602;6813;335979;-74
2023/05/22 11:59:06;;;;;;;13.40;12.50;;;31.60;33.90;;;;;;20820;6811;118113;-75
2023/05/22 12:01:32;;;;;;;12.97;11.90;;;31.60;34.10;;;;;;20585;6812;432871;-75
2023/05/22 12:03:58;;;;;;;12.30;11.32;;;31.80;34.20;;;;;;20603;6812;277020;-75
2023/05/22 12:06:23;;;;;;;12.27;11.33;;;31.90;34.30;;;;;;20605;6812;306491;-74
2023/05/22 12:08:50;;;;;;;11.85;11.05;;;32.20;34.90;;;;;;20612;6812;310639;-76
2023/05/22 12:11:15;;;;;;;11.70;10.90;;;32.10;34.80;;;;;;20587;6813;276436;-76
2023/05/22 12:13:41;;;;;;;11.67;10.70;;;32.30;34.40;;;;;;20616;6813;276951;-76
2023/05/22 12:16:18;;;;;;;11.90;10.93;;;32.40;33.30;;;;;;20608;6813;305886;-76
2023/05/22 12:18:43;;;;;;;11.37;10.53;;;32.30;33.20;;;;;;20597;6813;307470;-75